Genco Auvergne — V7ES3 — position and weather

sailwx.info

Track history (hours):
 
Tides and Currents Weather Stations Pressure Air Temp Water Temp Dewpoint Dewpoint Depression Visibility Wind Speed Wind Dir Waves Ship Positions

Genco Auvergne

Last reported at 2017-Jul-20 12:35 UTC. Time now 2017-Aug-23 11:37 UTC.
Position N 01°15' E 103°24'.
Warning: this ship's position is 33 days out of date.

Length 190 m; draft 13.1 m.

Type: Cargo ship. MMSI: 538002570.

Date/timePositionNaut miles runAvg speedWind from/ knotsBaromVisibWave heightAir tempDewpointWater temp
2017-Jul-20 12:35N 01°15' E 103°24'111.8
2017-Jul-20 12:30N 01°15' E 103°25'611.4
2017-Jul-20 12:01N 01°13' E 103°30'611.9
2017-Jul-20 11:30N 01°12' E 103°36'510.8
2017-Jul-20 11:01N 01°10' E 103°41'5 9.8
2017-Jul-20 10:31N 01°09' E 103°46'612.6
2017-Jul-20 10:00N 01°12' E 103°52'510.3
2017-Jul-20 09:29N 01°14' E 103°57'3 0.3
2017-Jul-19 22:48N 01°16' E 103°58'0 0.0
2017-Jul-19 17:30N 01°16' E 103°58'0 0.0
2017-Jul-18 22:48N 01°17' E 103°58'0 0.3
2017-Jul-18 22:30N 01°16' E 103°58'2 2.3
2017-Jul-18 21:34N 01°16' E 104°00'0 2.7
2017-Jul-18 21:30N 01°16' E 104°00'  
Track history (hours):
 
Tides and Currents Weather Stations Pressure Air Temp Water Temp Dewpoint Dewpoint Depression Visibility Wind Speed Wind Dir Waves Ship Positions

Genco Auvergne

Last reported at 2017-Jul-20 12:35 UTC. Time now 2017-Aug-23 11:37 UTC.
Position N 01°15' E 103°24'.
Warning: this ship's position is 33 days out of date.

Length 190 m; draft 13.1 m.

Type: Cargo ship. MMSI: 538002570.

Date/timePositionNaut miles runAvg speedWind from/ knotsBaromVisibWave heightAir tempDewpointWater temp
2017-Jul-20 12:35N 01°15' E 103°24'111.8
2017-Jul-20 12:30N 01°15' E 103°25'611.4
2017-Jul-20 12:01N 01°13' E 103°30'611.9
2017-Jul-20 11:30N 01°12' E 103°36'510.8
2017-Jul-20 11:01N 01°10' E 103°41'5 9.8
2017-Jul-20 10:31N 01°09' E 103°46'612.6
2017-Jul-20 10:00N 01°12' E 103°52'510.3
2017-Jul-20 09:29N 01°14' E 103°57'3 0.3
2017-Jul-19 22:48N 01°16' E 103°58'0 0.0
2017-Jul-19 17:30N 01°16' E 103°58'0 0.0
2017-Jul-18 22:48N 01°17' E 103°58'0 0.3
2017-Jul-18 22:30N 01°16' E 103°58'2 2.3
2017-Jul-18 21:34N 01°16' E 104°00'0 2.7
2017-Jul-18 21:30N 01°16' E 104°00'  

Dump ship's entire track history